createdAt,value
2022-07-30T00:04:32.610Z,13.29
2022-07-30T00:09:36.394Z,13.30
2022-07-30T00:14:39.873Z,13.32
2022-07-30T00:19:43.284Z,13.36
2022-07-30T00:24:48.644Z,13.40
2022-07-30T00:29:51.956Z,13.44
2022-07-30T00:34:55.265Z,13.46
2022-07-30T00:39:58.679Z,13.49
2022-07-30T00:45:02.098Z,13.52
2022-07-30T00:50:08.445Z,13.57
2022-07-30T00:55:15.023Z,13.65
2022-07-30T01:00:19.192Z,13.73
2022-07-30T01:05:22.605Z,13.77
2022-07-30T01:10:25.916Z,13.82
2022-07-30T01:15:30.103Z,13.86
2022-07-30T01:20:44.517Z,13.87
2022-07-30T01:25:50.492Z,13.90
2022-07-30T01:30:56.260Z,13.93
2022-07-30T01:36:01.641Z,13.95
2022-07-30T01:41:08.164Z,13.93
2022-07-30T01:46:14.185Z,13.89
2022-07-30T01:51:18.695Z,13.82
2022-07-30T01:56:25.274Z,13.75
2022-07-30T02:01:28.974Z,13.66
2022-07-30T02:06:38.789Z,13.57
2022-07-30T02:12:04.219Z,13.48
2022-07-30T02:17:18.660Z,13.39
2022-07-30T02:22:25.894Z,13.28
2022-07-30T02:27:32.634Z,13.22
2022-07-30T02:32:39.214Z,13.16
2022-07-30T02:37:44.441Z,13.12
2022-07-30T02:42:51.825Z,13.05
2022-07-30T02:48:03.117Z,13.00
2022-07-30T02:53:11.769Z,12.93
2022-07-30T02:58:22.553Z,12.91
2022-07-30T03:03:29.617Z,12.86
2022-07-30T03:08:34.706Z,12.84
2022-07-30T03:13:38.529Z,12.84
2022-07-30T03:18:44.457Z,12.85
2022-07-30T03:23:49.915Z,12.85
2022-07-30T03:28:54.090Z,12.90
2022-07-30T03:33:57.605Z,12.98
2022-07-30T03:39:01.839Z,13.10
2022-07-30T03:44:06.483Z,13.26
2022-07-30T03:49:11.956Z,13.41
2022-07-30T03:54:16.686Z,13.56
2022-07-30T03:59:20.101Z,13.69
2022-07-30T04:04:23.513Z,13.78
2022-07-30T04:09:26.823Z,13.83
2022-07-30T04:14:44.796Z,13.91
2022-07-30T04:20:02.015Z,14.10
2022-07-30T04:25:07.202Z,14.30
2022-07-30T04:30:11.236Z,14.44
2022-07-30T04:35:23.965Z,14.67
2022-07-30T04:40:37.890Z,14.90
2022-07-30T04:45:42.120Z,15.11
2022-07-30T04:50:47.377Z,15.31
2022-07-30T04:55:52.975Z,15.50
2022-07-30T05:01:00.283Z,15.73
2022-07-30T05:06:05.580Z,15.98
2022-07-30T05:11:13.422Z,16.20
2022-07-30T05:16:17.222Z,16.35
2022-07-30T05:21:20.657Z,16.53
2022-07-30T05:26:27.483Z,16.73
2022-07-30T05:31:32.815Z,17.00
2022-07-30T05:36:36.938Z,17.28
2022-07-30T05:41:40.350Z,17.48
2022-07-30T05:46:43.710Z,17.65
2022-07-30T05:51:47.491Z,17.78
2022-07-30T05:56:53.766Z,18.06
2022-07-30T06:01:57.227Z,18.35
2022-07-30T06:07:00.893Z,18.66
2022-07-30T06:12:06.515Z,18.89
2022-07-30T06:17:09.773Z,19.21
2022-07-30T06:22:13.085Z,19.48
2022-07-30T06:27:16.497Z,19.60
2022-07-30T06:32:19.910Z,19.80
2022-07-30T06:37:23.630Z,20.12
2022-07-30T06:42:47.023Z,20.38
2022-07-30T06:47:50.528Z,20.50
2022-07-30T06:52:55.067Z,20.55
2022-07-30T06:57:58.377Z,20.71
2022-07-30T07:03:01.744Z,20.91
2022-07-30T07:08:05.402Z,21.15
2022-07-30T07:13:08.824Z,21.33
2022-07-30T07:18:13.262Z,21.31
2022-07-30T07:23:16.564Z,21.55
2022-07-30T07:28:23.294Z,21.74
2022-07-30T07:33:37.020Z,21.75
2022-07-30T07:38:40.341Z,21.78
2022-07-30T07:43:43.741Z,21.85
2022-07-30T07:48:47.306Z,22.07
2022-07-30T07:54:11.728Z,22.32
2022-07-30T07:59:14.065Z,22.56
2022-07-30T08:04:20.366Z,22.79
2022-07-30T08:09:23.452Z,23.13
2022-07-30T08:14:26.670Z,23.23
2022-07-30T08:19:30.183Z,23.32
2022-07-30T08:24:34.419Z,23.61
2022-07-30T08:29:37.887Z,23.65
2022-07-30T08:34:41.240Z,23.53
2022-07-30T08:39:45.146Z,23.49
2022-07-30T08:44:48.407Z,23.71
2022-07-30T08:49:51.754Z,23.61
2022-07-30T08:54:56.447Z,23.57
2022-07-30T09:00:01.715Z,23.93
2022-07-30T09:05:06.549Z,24.44
2022-07-30T09:10:11.003Z,24.92
2022-07-30T09:15:16.827Z,25.03
2022-07-30T09:20:22.283Z,25.29
2022-07-30T09:25:34.525Z,25.79
2022-07-30T09:30:48.764Z,26.22
2022-07-30T09:35:56.956Z,26.17
2022-07-30T09:41:04.836Z,26.32
2022-07-30T09:46:16.562Z,26.16
2022-07-30T09:51:23.997Z,25.82
2022-07-30T09:56:53.982Z,26.07
2022-07-30T10:02:01.065Z,26.48
2022-07-30T10:07:25.357Z,26.69
2022-07-30T10:12:30.829Z,26.92
2022-07-30T10:17:34.566Z,27.20
2022-07-30T10:22:39.154Z,27.39
2022-07-30T10:27:42.587Z,27.69
2022-07-30T10:32:46.472Z,28.15
2022-07-30T10:37:58.174Z,28.29
2022-07-30T10:43:36.001Z,28.04
2022-07-30T10:48:39.572Z,27.42
2022-07-30T10:53:46.198Z,27.64
2022-07-30T10:59:15.694Z,27.92
2022-07-30T11:04:25.711Z,27.86
2022-07-30T11:09:37.423Z,27.90
2022-07-30T11:15:06.631Z,28.10
2022-07-30T11:20:21.923Z,27.90
2022-07-30T11:25:50.222Z,28.30
2022-07-30T11:30:55.678Z,28.32
2022-07-30T11:36:10.720Z,28.28
2022-07-30T11:41:15.147Z,27.85
2022-07-30T11:46:28.922Z,27.48
2022-07-30T11:51:44.227Z,27.22
2022-07-30T11:56:51.914Z,27.38
2022-07-30T12:02:02.308Z,27.88
2022-07-30T12:07:06.212Z,28.15
2022-07-30T12:12:25.499Z,27.81
2022-07-30T12:17:45.920Z,27.20
2022-07-30T12:22:49.425Z,27.19
2022-07-30T12:27:54.167Z,27.78
2022-07-30T12:32:57.479Z,27.73
2022-07-30T12:38:05.295Z,27.23
2022-07-30T12:43:13.741Z,27.14
2022-07-30T12:48:17.445Z,26.88
2022-07-30T12:53:29.874Z,26.60
2022-07-30T12:58:38.484Z,26.35
2022-07-30T13:03:42.124Z,26.10
2022-07-30T13:08:58.544Z,25.92
2022-07-30T13:14:01.855Z,25.87
2022-07-30T13:19:07.189Z,25.95
2022-07-30T13:24:11.445Z,26.07
2022-07-30T13:29:21.618Z,26.40
2022-07-30T13:34:25.750Z,26.54
2022-07-30T13:39:29.366Z,26.38
2022-07-30T13:44:32.678Z,26.12
2022-07-30T13:49:37.831Z,26.07
2022-07-30T13:54:41.141Z,26.17
2022-07-30T13:59:44.664Z,26.39
2022-07-30T14:04:47.974Z,26.48
2022-07-30T14:09:54.359Z,26.24
2022-07-30T14:14:58.274Z,25.94
2022-07-30T14:20:02.112Z,25.71
2022-07-30T14:25:06.025Z,25.35
2022-07-30T14:30:10.563Z,25.10
2022-07-30T14:35:13.877Z,24.78
2022-07-30T14:40:17.184Z,24.51
2022-07-30T14:45:20.495Z,24.34
2022-07-30T14:50:23.907Z,24.31
2022-07-30T14:55:27.423Z,24.37
2022-07-30T15:00:35.548Z,24.37
2022-07-30T15:05:52.540Z,24.25
2022-07-30T15:10:57.982Z,24.22
2022-07-30T15:16:06.469Z,24.27
2022-07-30T15:21:09.887Z,24.27
2022-07-30T15:26:13.198Z,24.30
2022-07-30T15:31:16.386Z,24.37
2022-07-30T15:36:19.616Z,24.45
2022-07-30T15:41:22.907Z,24.44
2022-07-30T15:46:26.133Z,24.45
2022-07-30T15:51:29.646Z,24.38
2022-07-30T15:56:33.982Z,24.21
2022-07-30T16:01:37.514Z,24.12
2022-07-30T16:06:42.907Z,24.03
2022-07-30T16:11:46.870Z,24.01
2022-07-30T16:16:50.296Z,23.95
2022-07-30T16:21:53.559Z,23.87
2022-07-30T16:26:56.611Z,23.83
2022-07-30T16:32:00.191Z,23.73
2022-07-30T16:37:04.096Z,23.56
2022-07-30T16:42:07.950Z,23.46
2022-07-30T16:47:13.878Z,23.44
2022-07-30T16:52:18.489Z,23.42
2022-07-30T16:57:21.698Z,23.34
2022-07-30T17:02:25.275Z,23.18
2022-07-30T17:07:29.105Z,23.00
2022-07-30T17:12:32.326Z,22.92
2022-07-30T17:17:35.540Z,22.86
2022-07-30T17:22:42.958Z,22.79
2022-07-30T17:27:46.332Z,22.71
2022-07-30T17:32:50.842Z,22.63
2022-07-30T17:37:54.035Z,22.56
2022-07-30T17:43:04.045Z,22.50
2022-07-30T17:48:08.838Z,22.45
2022-07-30T17:53:12.055Z,22.34
2022-07-30T17:58:15.354Z,22.23
2022-07-30T18:03:19.439Z,22.11
2022-07-30T18:08:23.981Z,22.01
2022-07-30T18:13:27.850Z,21.90
2022-07-30T18:18:31.266Z,21.78
2022-07-30T18:23:35.202Z,21.67
2022-07-30T18:28:38.599Z,21.52
2022-07-30T18:33:41.910Z,21.52
2022-07-30T18:38:51.158Z,21.50
2022-07-30T18:43:54.576Z,21.34
2022-07-30T18:48:59.230Z,21.21
2022-07-30T18:54:10.412Z,21.09
2022-07-30T18:59:13.723Z,21.01
2022-07-30T19:04:17.239Z,20.92
2022-07-30T19:09:20.549Z,20.82
2022-07-30T19:14:23.962Z,20.71
2022-07-30T19:19:27.477Z,20.61
2022-07-30T19:24:30.791Z,20.49
2022-07-30T19:29:34.201Z,20.42
2022-07-30T19:34:38.433Z,20.35
2022-07-30T19:40:05.173Z,20.27
2022-07-30T19:45:11.498Z,20.20
2022-07-30T19:50:15.194Z,20.15
2022-07-30T19:55:31.092Z,20.10
2022-07-30T20:00:39.225Z,20.06
2022-07-30T20:05:55.069Z,20.03
2022-07-30T20:11:34.821Z,19.97
2022-07-30T20:16:41.024Z,19.89
2022-07-30T20:21:56.742Z,19.80
2022-07-30T20:27:35.462Z,19.72
2022-07-30T20:32:26.081Z,19.63
2022-07-30T20:37:29.645Z,19.55
2022-07-30T20:42:33.369Z,19.48
2022-07-30T20:47:38.708Z,19.40
2022-07-30T20:52:46.696Z,19.34
2022-07-30T20:57:56.804Z,19.29
2022-07-30T21:03:06.472Z,19.24
2022-07-30T21:08:17.260Z,19.17
2022-07-30T21:13:21.247Z,19.09
2022-07-30T21:18:24.922Z,19.02
2022-07-30T21:23:29.853Z,18.96
2022-07-30T21:28:36.441Z,18.89
2022-07-30T21:33:39.755Z,18.82
2022-07-30T21:38:43.269Z,18.74
2022-07-30T21:43:49.283Z,18.66
2022-07-30T21:48:58.306Z,18.58
2022-07-30T21:54:07.193Z,18.48
2022-07-30T21:59:10.847Z,18.38
2022-07-30T22:04:16.438Z,18.31
2022-07-30T22:09:33.441Z,18.23
2022-07-30T22:14:39.525Z,18.16
2022-07-30T22:19:43.034Z,18.11
2022-07-30T22:24:47.471Z,18.04
2022-07-30T22:29:51.294Z,18.00
2022-07-30T22:34:59.315Z,17.94
2022-07-30T22:40:04.217Z,17.88
2022-07-30T22:45:10.338Z,17.83
2022-07-30T22:50:21.237Z,17.79
2022-07-30T22:55:29.872Z,17.74
2022-07-30T23:00:35.018Z,17.71
2022-07-30T23:05:40.022Z,17.66
2022-07-30T23:10:46.450Z,17.62
2022-07-30T23:15:49.862Z,17.59
2022-07-30T23:20:55.088Z,17.54
2022-07-30T23:26:05.598Z,17.47
2022-07-30T23:31:08.909Z,17.40
2022-07-30T23:36:12.321Z,17.33
2022-07-30T23:41:29.411Z,17.23
2022-07-30T23:46:33.482Z,17.12
2022-07-30T23:51:36.897Z,17.03
2022-07-30T23:56:40.618Z,16.95
